Time;durP1;ratioP1;P1;durP2;ratioP2;P2;SDS_P1;SDS_P2;PMS_P1;PMS_P2;Temp;Humidity;BMP_temperature;BMP_pressure;BME280_temperature;BME280_humidity;BME280_pressure;Samples;Min_cycle;Max_cycle;Signal;HPM_P1;HPM_P2
2022/05/12 00:01:22;;;;;;;8.52;4.30;;;;;;;17.19;54.40;100081.28;3092965;28;20538;-71
2022/05/12 00:02:54;;;;;;;9.13;4.63;;;;;;;17.01;54.38;100059.69;3099350;28;20057;-72
2022/05/12 00:04:26;;;;;;;7.13;4.80;;;;;;;17.13;54.59;100084.31;3099577;28;20076;-71
2022/05/12 00:05:58;;;;;;;7.95;4.22;;;;;;;17.06;54.71;100076.81;3103340;28;20372;-71
2022/05/12 00:07:32;;;;;;;7.15;4.07;;;;;;;17.06;54.88;100081.25;3105051;28;20061;-70
2022/05/12 00:09:04;;;;;;;7.95;3.88;;;;;;;16.95;54.89;100070.63;3099336;28;20141;-70
2022/05/12 00:10:37;;;;;;;6.97;4.35;;;;;;;16.88;55.05;100070.16;3103580;28;20049;-70
2022/05/12 00:12:12;;;;;;;8.20;4.72;;;;;;;16.95;55.20;100084.63;3099620;28;20506;-70
2022/05/12 00:13:44;;;;;;;8.45;4.22;;;;;;;16.92;55.19;100082.19;3094201;28;20497;-70
2022/05/12 00:15:19;;;;;;;7.75;4.22;;;;;;;16.91;55.25;100085.75;3100264;28;20046;-70
2022/05/12 00:16:52;;;;;;;9.95;4.25;;;;;;;16.88;55.25;100085.13;3099836;28;20059;-70
2022/05/12 00:18:24;;;;;;;10.05;4.15;;;;;;;16.82;55.23;100074.06;3100208;28;20144;-69
2022/05/12 00:19:56;;;;;;;7.47;4.82;;;;;;;16.82;55.06;100076.69;3100325;28;20120;-69
2022/05/12 00:21:28;;;;;;;9.45;4.47;;;;;;;16.84;55.16;100081.84;3100945;28;20061;-69
2022/05/12 00:23:10;;;;;;;8.05;4.68;;;;;;;16.52;55.44;100026.94;3100423;28;20190;-70
2022/05/12 00:24:44;;;;;;;7.88;4.00;;;;;;;16.80;55.50;100077.72;3100054;28;20050;-71
2022/05/12 00:26:16;;;;;;;7.72;4.00;;;;;;;16.78;55.66;100079.63;3104078;28;20115;-70
2022/05/12 00:27:49;;;;;;;10.15;4.57;;;;;;;16.78;55.56;100077.00;3100348;28;20149;-70
2022/05/12 00:29:21;;;;;;;8.80;4.43;;;;;;;16.77;55.39;100077.94;3106233;28;20104;-70
2022/05/12 00:30:56;;;;;;;5.95;3.88;;;;;;;16.76;55.67;100074.47;3109194;28;20490;-70
2022/05/12 00:32:28;;;;;;;9.93;4.53;;;;;;;16.72;55.81;100077.38;3109189;28;20050;-70
2022/05/12 00:34:00;;;;;;;11.80;4.53;;;;;;;16.71;56.07;100073.03;3108982;28;20058;-71
2022/05/12 00:35:32;;;;;;;7.55;4.57;;;;;;;16.67;56.14;100066.31;3109524;28;20050;-71
2022/05/12 00:37:05;;;;;;;6.00;4.20;;;;;;;16.63;55.84;100070.09;3109086;28;20528;-71
2022/05/12 00:38:37;;;;;;;10.18;3.90;;;;;;;16.65;55.93;100073.44;3109227;28;20108;-70
2022/05/12 00:40:10;;;;;;;9.50;4.45;;;;;;;16.68;56.22;100087.28;3109055;28;20085;-70
2022/05/12 00:41:42;;;;;;;11.57;5.20;;;;;;;16.66;56.14;100088.31;3109300;28;20046;-70
2022/05/12 00:43:41;;;;;;;8.40;5.32;;;;;;;16.65;56.52;100091.88;3109263;28;20053;-71
2022/05/12 00:45:12;;;;;;;11.85;4.97;;;;;;;16.60;56.29;100092.19;3108898;28;20061;-70
2022/05/12 00:46:49;;;;;;;7.97;4.65;;;;;;;16.57;56.33;100085.34;3109198;28;20054;-69
2022/05/12 00:48:20;;;;;;;8.93;4.93;;;;;;;16.58;56.54;100088.78;3108981;28;20092;-69
2022/05/12 00:49:54;;;;;;;8.90;5.00;;;;;;;16.58;56.63;100094.91;3109301;28;20057;-71
2022/05/12 00:51:32;;;;;;;9.73;5.50;;;;;;;16.58;56.66;100088.78;3108633;28;20045;-71
2022/05/12 00:53:07;;;;;;;8.57;4.60;;;;;;;16.57;56.81;100085.34;3109033;28;20053;-71
2022/05/12 00:54:46;;;;;;;9.60;5.32;;;;;;;16.56;56.61;100086.28;3109224;28;20053;-71
2022/05/12 00:56:21;;;;;;;11.30;4.93;;;;;;;16.51;56.55;100074.38;3114899;28;20510;-70
2022/05/12 00:57:55;;;;;;;9.15;4.35;;;;;;;16.53;56.76;100090.88;3121044;28;20580;-71
2022/05/12 00:59:30;;;;;;;9.90;4.75;;;;;;;16.50;56.61;100085.81;3121314;28;20049;-71
2022/05/12 01:01:04;;;;;;;7.13;4.63;;;;;;;16.40;56.72;100072.44;3121166;28;20100;-71
2022/05/12 01:02:39;;;;;;;9.23;4.60;;;;;;;16.45;56.51;100086.13;3121631;28;20045;-71
2022/05/12 01:04:12;;;;;;;10.90;4.50;;;;;;;16.48;56.73;100087.72;3121136;28;20544;-71
2022/05/12 01:05:43;;;;;;;10.32;4.00;;;;;;;16.45;56.55;100086.13;3120790;28;20041;-71
2022/05/12 01:07:16;;;;;;;10.30;5.00;;;;;;;16.45;56.65;100087.94;3121077;28;20049;-71
2022/05/12 01:08:47;;;;;;;12.43;4.93;;;;;;;16.44;56.47;100087.06;3121491;28;20058;-71
2022/05/12 01:10:21;;;;;;;9.27;3.63;;;;;;;16.40;56.58;100085.59;3114502;28;20123;-69
2022/05/12 01:11:54;;;;;;;10.43;3.88;;;;;;;16.38;56.54;100083.03;3121173;28;20060;-72
2022/05/12 01:13:26;;;;;;;8.98;3.60;;;;;;;16.41;56.39;100095.16;3120814;28;20061;-72
2022/05/12 01:14:58;;;;;;;6.63;3.83;;;;;;;16.34;56.33;100088.63;3121114;28;20045;-72
2022/05/12 01:16:42;;;;;;;8.50;4.07;;;;;;;16.39;56.19;100097.06;3120978;28;20098;-72
2022/05/12 01:18:17;;;;;;;29.85;4.85;;;;;;;16.29;56.30;100093.31;3121170;28;20061;-72
2022/05/12 01:19:51;;;;;;;17.70;4.10;;;;;;;16.30;56.34;100100.28;3120788;28;20934;-72
2022/05/12 01:21:23;;;;;;;7.38;3.47;;;;;;;16.25;56.08;100102.34;3121217;28;20049;-72
2022/05/12 01:23:00;;;;;;;7.63;3.67;;;;;;;16.18;56.23;100099.28;3120980;28;20167;-71
2022/05/12 01:24:36;;;;;;;5.97;3.72;;;;;;;16.12;56.00;100103.13;3120975;28;20415;-72
2022/05/12 01:26:10;;;;;;;8.40;3.40;;;;;;;16.07;56.34;100102.56;3123951;28;20103;-71
2022/05/12 01:27:43;;;;;;;5.90;3.20;;;;;;;16.03;56.46;100101.09;3121088;28;20102;-71
2022/05/12 01:29:15;;;;;;;7.82;3.60;;;;;;;16.03;56.27;100108.09;3114614;28;20418;-72
2022/05/12 01:30:46;;;;;;;6.20;3.20;;;;;;;16.03;55.96;100105.47;3120800;28;20049;-70
2022/05/12 01:32:18;;;;;;;8.65;3.42;;;;;;;15.79;56.05;100077.19;3120839;28;20106;-71
2022/05/12 01:33:51;;;;;;;4.63;2.97;;;;;;;15.92;55.86;100093.03;3120992;28;20049;-71
2022/05/12 01:35:25;;;;;;;7.82;3.78;;;;;;;16.01;56.15;100110.84;3120702;28;20453;-71
2022/05/12 01:36:57;;;;;;;8.85;3.20;;;;;;;15.97;55.80;100113.75;3120113;28;20042;-71
2022/05/12 01:38:29;;;;;;;4.75;3.05;;;;;;;16.00;55.98;100117.03;3116251;28;20060;-70
2022/05/12 01:40:02;;;;;;;5.13;3.40;;;;;;;15.98;55.91;100113.66;3120786;28;20422;-70
2022/05/12 01:41:34;;;;;;;4.95;3.33;;;;;;;15.60;55.84;100053.81;3114779;28;20118;-71
2022/05/12 01:43:06;;;;;;;5.93;3.03;;;;;;;15.95;55.97;100108.59;3120759;28;20092;-71
2022/05/12 01:44:39;;;;;;;6.25;3.00;;;;;;;15.90;55.91;100116.75;3120965;28;20443;-70
2022/05/12 01:46:11;;;;;;;3.92;2.85;;;;;;;15.87;55.85;100113.47;3121097;28;20046;-70
2022/05/12 01:47:43;;;;;;;6.32;3.22;;;;;;;15.86;55.57;100112.63;3120602;28;20049;-69
2022/05/12 01:49:15;;;;;;;8.43;3.17;;;;;;;15.77;55.59;100101.88;3120314;28;20493;-70
2022/05/12 01:50:48;;;;;;;4.65;3.35;;;;;;;15.85;55.22;100113.59;3120759;28;20451;-69
2022/05/12 01:52:20;;;;;;;6.68;3.30;;;;;;;15.79;55.28;100105.22;3120804;28;20060;-69
2022/05/12 01:53:52;;;;;;;6.53;2.83;;;;;;;15.86;55.55;100117.06;3113953;28;20057;-69
2022/05/12 01:55:27;;;;;;;5.72;2.83;;;;;;;15.87;55.00;100118.72;3120554;28;20423;-70
2022/05/12 01:56:59;;;;;;;6.35;2.78;;;;;;;15.88;54.97;100116.03;3114085;28;20053;-70
2022/05/12 01:58:31;;;;;;;9.50;3.10;;;;;;;15.88;55.32;100116.03;3108398;28;20053;-71
2022/05/12 02:00:04;;;;;;;7.88;2.83;;;;;;;15.86;55.35;100120.53;3108601;28;20203;-71
2022/05/12 02:01:36;;;;;;;6.10;3.22;;;;;;;15.85;55.08;100123.22;3108627;28;20454;-70
2022/05/12 02:03:09;;;;;;;4.72;3.00;;;;;;;15.81;55.23;100119.13;3108536;28;20050;-71
2022/05/12 02:04:41;;;;;;;5.22;3.00;;;;;;;15.76;55.43;100122.00;3108559;28;20085;-71
2022/05/12 02:06:13;;;;;;;5.35;2.78;;;;;;;15.66;55.34;100116.44;3108159;28;20042;-70
2022/05/12 02:07:47;;;;;;;5.25;2.70;;;;;;;15.65;55.60;100129.69;3108229;28;20108;-69
2022/05/12 02:09:19;;;;;;;8.98;3.25;;;;;;;15.61;55.91;100128.16;3108280;28;20049;-69
2022/05/12 02:10:53;;;;;;;10.60;3.40;;;;;;;15.58;55.72;100131.81;3108470;28;20054;-68
2022/05/12 02:12:24;;;;;;;4.85;2.50;;;;;;;15.60;55.59;100134.38;3100541;28;20439;-71
2022/05/12 02:13:56;;;;;;;11.13;3.20;;;;;;;15.54;55.30;100127.69;3108361;28;20054;-72
2022/05/12 02:15:28;;;;;;;7.03;2.83;;;;;;;15.61;55.54;100143.91;3108482;28;20054;-72
2022/05/12 02:16:59;;;;;;;8.52;3.10;;;;;;;15.59;55.24;100135.31;3108120;28;20104;-70
2022/05/12 02:18:31;;;;;;;6.45;3.25;;;;;;;15.61;55.29;100138.66;3102275;28;20277;-69
2022/05/12 02:20:03;;;;;;;6.57;2.78;;;;;;;15.59;55.34;100146.66;3108294;28;20057;-69
2022/05/12 02:21:36;;;;;;;5.60;3.60;;;;;;;15.61;55.62;100141.28;3108300;28;20060;-69
2022/05/12 02:23:07;;;;;;;6.47;3.50;;;;;;;15.59;55.69;100146.66;3101803;28;20453;-69
2022/05/12 02:24:39;;;;;;;13.75;4.88;;;;;;;15.61;55.78;100152.63;3108402;28;20096;-70
2022/05/12 02:26:12;;;;;;;8.10;3.90;;;;;;;15.62;55.52;100161.38;3110364;28;20160;-70
2022/05/12 02:27:45;;;;;;;;;;;;;;;15.58;55.76;100158.06;3108761;28;20057;-70
2022/05/12 02:29:17;;;;;;;11.07;4.70;;;;;;;15.52;55.99;100141.84;3108852;28;19980;-70
2022/05/12 02:30:49;;;;;;;11.60;4.40;;;;;;;15.54;55.79;100153.94;3104254;28;20518;-70
2022/05/12 02:32:21;;;;;;;10.93;4.53;;;;;;;15.53;56.31;100152.28;3110940;28;20104;-69
2022/05/12 02:33:52;;;;;;;7.55;4.90;;;;;;;15.51;56.41;100158.53;3110732;28;20507;-69
2022/05/12 02:35:25;;;;;;;7.63;4.38;;;;;;;15.48;56.17;100157.78;3110683;28;20605;-70
2022/05/12 02:37:04;;;;;;;8.70;5.03;;;;;;;15.46;56.50;100156.19;3110488;28;20068;-70
2022/05/12 02:38:36;;;;;;;8.60;5.18;;;;;;;15.46;56.57;100158.81;3110668;28;20058;-69
2022/05/12 02:40:10;;;;;;;9.70;4.93;;;;;;;15.48;56.81;100162.19;3110571;28;20061;-70
2022/05/12 02:41:43;;;;;;;11.98;4.72;;;;;;;15.48;56.67;100163.03;3110569;28;20054;-69
2022/05/12 02:43:24;;;;;;;15.88;5.40;;;;;;;15.44;57.03;100156.28;3110375;28;20054;-69
2022/05/12 02:44:56;;;;;;;13.20;4.70;;;;;;;15.48;56.81;100167.44;3110817;28;20050;-69
2022/05/12 02:46:27;;;;;;;14.38;5.07;;;;;;;15.46;56.94;100164.91;3110353;28;20042;-69
2022/05/12 02:47:59;;;;;;;11.73;5.97;;;;;;;15.45;57.01;100165.84;3110598;28;20443;-69
2022/05/12 02:49:31;;;;;;;7.63;4.45;;;;;;;15.42;57.10;100159.94;3110450;28;20049;-70
2022/05/12 02:51:04;;;;;;;8.07;4.75;;;;;;;15.45;57.51;100170.25;3110062;28;20442;-70
2022/05/12 02:52:35;;;;;;;8.73;5.05;;;;;;;15.44;57.56;100168.56;3110591;28;20050;-70
2022/05/12 02:54:08;;;;;;;9.65;5.43;;;;;;;15.37;57.59;100152.31;3110288;28;20054;-70
2022/05/12 02:55:40;;;;;;;10.97;5.40;;;;;;;15.39;57.65;100160.97;3111049;28;20064;-70
2022/05/12 02:57:14;;;;;;;6.30;5.15;;;;;;;15.17;57.86;100140.41;3122949;28;20431;-70
2022/05/12 02:58:45;;;;;;;13.98;5.85;;;;;;;15.34;58.13;100167.41;3116276;28;20107;-70
2022/05/12 03:00:19;;;;;;;10.90;4.75;;;;;;;15.33;58.05;100171.81;3122419;28;20079;-70
2022/05/12 03:01:51;;;;;;;14.15;5.55;;;;;;;15.34;57.82;100167.41;3122740;28;20072;-69
2022/05/12 03:03:22;;;;;;;9.50;5.25;;;;;;;15.30;58.19;100164.13;3114912;28;20057;-69
2022/05/12 03:04:54;;;;;;;14.00;5.85;;;;;;;15.20;57.96;100155.97;3122241;28;20092;-70
2022/05/12 03:06:27;;;;;;;15.93;5.80;;;;;;;15.25;58.27;100169.63;3122475;28;20046;-70
2022/05/12 03:07:59;;;;;;;15.65;6.05;;;;;;;15.21;58.68;100180.41;3122643;28;20054;-73
2022/05/12 03:09:31;;;;;;;10.65;5.43;;;;;;;15.15;58.75;100179.00;3122509;28;20049;-71
2022/05/12 03:11:04;;;;;;;10.63;6.15;;;;;;;15.06;59.10;100170.81;3122536;28;20080;-70
2022/05/12 03:12:37;;;;;;;8.30;5.53;;;;;;;15.04;59.23;100178.75;3122429;28;20141;-72
2022/05/12 03:14:09;;;;;;;9.18;5.60;;;;;;;15.02;58.96;100183.25;3122421;28;20073;-72
2022/05/12 03:15:41;;;;;;;10.68;5.50;;;;;;;15.03;58.98;100184.94;3122664;28;20053;-71
2022/05/12 03:17:13;;;;;;;14.02;6.25;;;;;;;15.02;59.27;100183.25;3122371;28;20111;-72
2022/05/12 03:18:46;;;;;;;13.07;6.50;;;;;;;14.98;59.44;100182.59;3122138;28;20104;-72
2022/05/12 03:20:22;;;;;;;14.77;5.38;;;;;;;15.02;59.53;100184.13;3122581;28;20049;-72
2022/05/12 03:21:54;;;;;;;13.35;5.70;;;;;;;15.02;59.13;100186.75;3122414;28;20504;-72
2022/05/12 03:23:26;;;;;;;8.57;5.50;;;;;;;14.98;59.37;100173.88;3122187;28;20439;-72
2022/05/12 03:24:58;;;;;;;12.80;5.53;;;;;;;15.00;59.38;100185.13;3123181;28;20525;-72
2022/05/12 03:26:30;;;;;;;9.63;5.45;;;;;;;15.00;59.27;100190.38;3123593;28;20111;-72
2022/05/12 03:28:03;;;;;;;10.95;5.45;;;;;;;15.00;59.44;100185.97;3122295;28;20438;-72
2022/05/12 03:29:35;;;;;;;10.95;5.80;;;;;;;15.00;59.31;100191.22;3122320;28;20050;-72
2022/05/12 03:31:08;;;;;;;8.48;5.38;;;;;;;15.00;59.63;100185.97;3122378;28;20115;-72
2022/05/12 03:32:41;;;;;;;10.25;5.80;;;;;;;14.96;59.67;100180.97;3122206;28;20084;-71
2022/05/12 03:34:12;;;;;;;15.35;6.00;;;;;;;14.96;59.49;100183.59;3122255;28;20140;-71
2022/05/12 03:35:45;;;;;;;12.32;5.80;;;;;;;14.95;59.85;100185.38;3122253;28;20053;-72
2022/05/12 03:37:18;;;;;;;10.85;5.57;;;;;;;14.95;59.78;100182.75;3121920;28;20511;-72
2022/05/12 03:38:50;;;;;;;13.30;6.10;;;;;;;14.93;59.45;100179.38;3122434;28;20068;-70
2022/05/12 03:40:22;;;;;;;14.30;5.38;;;;;;;14.97;59.64;100187.94;3121177;28;20312;-70
2022/05/12 03:41:53;;;;;;;10.05;5.55;;;;;;;14.88;59.66;100167.44;3122197;28;20111;-71
2022/05/12 03:45:16;;;;;;;10.95;5.30;;;;;;;15.00;59.77;100185.13;3122329;28;20414;-71
2022/05/12 03:46:47;;;;;;;18.45;6.10;;;;;;;15.00;59.59;100185.13;3121884;28;20080;-72
2022/05/12 03:48:19;;;;;;;19.92;7.07;;;;;;;15.03;60.00;100192.81;3122103;28;20515;-72
2022/05/12 03:49:53;;;;;;;16.48;6.40;;;;;;;14.85;60.00;100158.00;3125117;28;20053;-72
2022/05/12 03:51:25;;;;;;;11.80;5.75;;;;;;;15.07;60.03;100194.31;3114367;28;20050;-72
2022/05/12 03:52:57;;;;;;;10.50;5.63;;;;;;;15.10;59.98;100194.16;3122138;28;20053;-72
2022/05/12 03:54:29;;;;;;;22.70;6.35;;;;;;;15.08;60.09;100189.91;3121933;28;20087;-73
2022/05/12 03:56:01;;;;;;;11.57;6.10;;;;;;;15.12;60.06;100194.91;3121966;28;20123;-73
2022/05/12 03:57:34;;;;;;;13.40;6.22;;;;;;;14.99;59.99;100170.31;3121912;28;20056;-73
2022/05/12 03:59:06;;;;;;;13.30;5.63;;;;;;;15.15;59.79;100202.59;3122085;28;20056;-73
2022/05/12 04:00:39;;;;;;;12.07;6.35;;;;;;;15.17;59.77;100208.63;3121795;28;20057;-73
2022/05/12 04:02:13;;;;;;;17.52;7.10;;;;;;;15.18;59.90;100205.03;3121657;28;20081;-73
2022/05/12 04:03:45;;;;;;;12.07;6.88;;;;;;;15.20;60.00;100211.06;3122219;28;20139;-73
2022/05/12 04:05:20;;;;;;;16.02;7.03;;;;;;;15.22;59.54;100206.53;3117476;28;20140;-73
2022/05/12 04:06:55;;;;;;;12.38;5.68;;;;;;;15.23;59.65;100210.88;3121404;28;20148;-73
2022/05/12 04:08:27;;;;;;;13.93;5.70;;;;;;;15.22;59.64;100208.34;3121929;28;20053;-73
2022/05/12 04:10:01;;;;;;;13.63;5.47;;;;;;;14.86;59.17;100156.22;3122034;28;20046;-73
2022/05/12 04:11:32;;;;;;;10.48;5.25;;;;;;;15.12;59.05;100205.41;3121293;28;20053;-72
2022/05/12 04:13:05;;;;;;;9.68;6.25;;;;;;;15.10;59.24;100201.19;3122003;28;20049;-73
2022/05/12 04:14:39;;;;;;;12.80;5.30;;;;;;;15.19;59.39;100219.00;3121237;28;20499;-72
2022/05/12 04:16:11;;;;;;;11.45;5.13;;;;;;;14.99;59.08;100192.13;3121525;28;20457;-72
2022/05/12 04:17:43;;;;;;;18.98;5.32;;;;;;;15.11;59.43;100223.84;3121347;28;20048;-72
2022/05/12 04:19:15;;;;;;;12.82;5.30;;;;;;;15.13;59.31;100228.06;3120021;28;20119;-71
2022/05/12 04:20:47;;;;;;;14.07;5.28;;;;;;;14.78;59.17;100172.38;3121770;28;20103;-70
2022/05/12 04:22:19;;;;;;;7.85;4.85;;;;;;;15.15;59.15;100223.59;3121765;28;20060;-74
2022/05/12 04:23:51;;;;;;;15.30;5.20;;;;;;;15.16;59.14;100220.03;3121300;28;20046;-71
2022/05/12 04:25:25;;;;;;;10.70;4.65;;;;;;;15.16;59.10;100227.88;3122504;28;20089;-71
2022/05/12 04:26:57;;;;;;;9.55;4.97;;;;;;;15.17;58.88;100229.59;3117762;28;20056;-72
2022/05/12 04:28:29;;;;;;;8.05;4.38;;;;;;;15.20;58.55;100224.19;3121436;28;20053;-69
2022/05/12 04:30:02;;;;;;;13.98;3.88;;;;;;;15.21;58.55;100218.00;3121413;28;20057;-71
2022/05/12 04:31:34;;;;;;;9.57;4.57;;;;;;;15.24;58.54;100225.69;3115134;28;20049;-72
2022/05/12 04:35:12;;;;;;;28.50;5.28;;;;;;;15.29;58.56;100229.81;3115062;28;20045;-67
2022/05/12 04:36:45;;;;;;;9.52;4.90;;;;;;;15.31;58.30;100230.56;3121276;28;20767;-68
2022/05/12 04:38:17;;;;;;;12.63;5.60;;;;;;;15.32;57.99;100227.00;3121141;28;20053;-78
2022/05/12 04:39:48;;;;;;;17.50;4.55;;;;;;;15.04;58.29;100180.53;3121129;28;20053;-78
2022/05/12 04:41:21;;;;;;;11.40;4.00;;;;;;;15.39;58.13;100236.22;3121508;28;20056;-72
2022/05/12 04:42:54;;;;;;;12.07;5.05;;;;;;;15.42;58.05;100231.63;3121323;28;20061;-71
2022/05/12 04:44:26;;;;;;;;;;;;;;;15.46;58.16;100232.28;3121859;28;20045;-71
2022/05/12 04:46:00;;;;;;;9.20;4.43;;;;;;;15.49;57.89;100229.50;3121022;28;20406;-74
2022/05/12 04:47:32;;;;;;;14.02;3.53;;;;;;;15.50;57.74;100228.56;3121651;28;20054;-69
2022/05/12 04:49:04;;;;;;;15.57;5.13;;;;;;;15.52;57.41;100218.81;3122929;28;20056;-66
2022/05/12 04:50:40;;;;;;;11.13;3.90;;;;;;;15.64;57.22;100233.00;3120670;28;20438;-69
2022/05/12 04:52:12;;;;;;;9.25;5.45;;;;;;;15.62;57.26;100219.13;3120582;28;20065;-71
2022/05/12 04:53:44;;;;;;;10.40;4.07;;;;;;;15.71;56.90;100228.28;3114698;28;20063;-71
2022/05/12 04:55:17;;;;;;;9.70;3.97;;;;;;;15.79;56.69;100236.53;3121011;28;20053;-74
2022/05/12 04:56:49;;;;;;;8.73;4.93;;;;;;;15.78;56.76;100230.44;3121037;28;20493;-70
2022/05/12 04:58:21;;;;;;;15.13;4.03;;;;;;;15.86;56.61;100232.59;3121108;28;20111;-70
2022/05/12 04:59:55;;;;;;;13.45;4.22;;;;;;;15.96;56.10;100238.13;3121551;28;20052;-72
2022/05/12 05:01:28;;;;;;;7.22;3.95;;;;;;;15.93;56.18;100218.16;3121268;28;20538;-75
2022/05/12 05:03:01;;;;;;;13.38;4.20;;;;;;;16.09;56.16;100244.31;3121082;28;20049;-74
2022/05/12 05:04:32;;;;;;;11.65;6.00;;;;;;;16.16;55.82;100243.03;3121671;28;20462;-72
2022/05/12 05:06:05;;;;;;;7.30;3.85;;;;;;;15.97;55.61;100203.03;3114928;28;20061;-76
2022/05/12 05:07:37;;;;;;;7.00;4.10;;;;;;;16.28;55.31;100246.69;3120873;28;20050;-74
2022/05/12 05:09:09;;;;;;;12.73;4.78;;;;;;;16.33;55.43;100239.38;3120272;28;20443;-76
2022/05/12 05:10:41;;;;;;;8.32;4.03;;;;;;;16.31;54.92;100230.72;3120805;28;20092;-77
2022/05/12 05:12:16;;;;;;;10.82;4.25;;;;;;;16.28;54.94;100213.34;3120705;28;20061;-74
2022/05/12 05:13:49;;;;;;;8.48;3.92;;;;;;;16.45;54.58;100235.13;3121070;28;20721;-76
2022/05/12 05:15:28;;;;;;;8.15;3.20;;;;;;;16.56;54.48;100241.41;3121072;28;20076;-76
2022/05/12 05:17:02;;;;;;;7.60;3.28;;;;;;;16.61;54.05;100244.56;3120969;28;20583;-71
2022/05/12 05:18:36;;;;;;;12.95;3.60;;;;;;;16.68;54.06;100242.41;3120756;28;20045;-71
2022/05/12 05:20:11;;;;;;;6.03;4.18;;;;;;;16.73;53.68;100244.75;3120880;28;20438;-71
2022/05/12 05:21:43;;;;;;;7.00;3.53;;;;;;;16.80;53.42;100240.78;3115084;28;20107;-72
2022/05/12 05:23:16;;;;;;;6.85;4.35;;;;;;;16.87;53.32;100236.00;3121012;28;20446;-72
2022/05/12 05:24:48;;;;;;;7.65;4.18;;;;;;;16.92;53.02;100237.41;3120693;28;20081;-72
2022/05/12 05:26:20;;;;;;;7.78;3.50;;;;;;;16.94;52.70;100232.88;3122548;28;20049;-73
2022/05/12 05:27:55;;;;;;;8.18;3.97;;;;;;;17.01;52.94;100230.69;3120830;28;20045;-72
2022/05/12 05:29:27;;;;;;;7.82;3.45;;;;;;;17.10;52.49;100243.25;3121008;28;20503;-72
2022/05/12 05:30:59;;;;;;;16.35;4.50;;;;;;;17.08;52.53;100226.72;3120887;28;20049;-75
2022/05/12 05:32:33;;;;;;;5.03;3.75;;;;;;;17.11;52.36;100220.41;3120344;28;20123;-75
2022/05/12 05:34:05;;;;;;;11.93;4.75;;;;;;;17.20;52.19;100223.28;3120878;28;20115;-75
2022/05/12 05:35:45;;;;;;;9.10;3.88;;;;;;;17.24;52.24;100216.00;3114496;28;20502;-77
2022/05/12 05:37:17;;;;;;;8.30;4.05;;;;;;;17.43;52.12;100232.28;3114768;28;20144;-76
2022/05/12 05:38:49;;;;;;;9.80;4.03;;;;;;;17.29;51.89;100198.97;3120518;28;20152;-77
2022/05/12 05:40:25;;;;;;;7.32;3.70;;;;;;;17.37;52.00;100209.00;3120779;28;20053;-77
2022/05/12 05:42:01;;;;;;;8.35;3.88;;;;;;;17.57;51.64;100241.03;3120733;28;20511;-77
2022/05/12 05:43:53;;;;;;;9.25;4.13;;;;;;;17.33;51.81;100204.88;3120637;28;20057;-78
2022/05/12 05:45:28;;;;;;;8.45;4.18;;;;;;;17.57;51.99;100235.75;3120812;28;20438;-78
2022/05/12 05:47:00;;;;;;;14.75;4.88;;;;;;;17.61;51.96;100242.53;3120530;28;20479;-76
2022/05/12 05:48:34;;;;;;;9.77;4.03;;;;;;;17.63;51.82;100245.88;3120690;28;20053;-78
2022/05/12 05:50:08;;;;;;;9.02;4.38;;;;;;;17.65;51.76;100242.19;3123757;28;20092;-75
2022/05/12 05:53:38;;;;;;;12.15;4.50;;;;;;;17.55;51.96;100219.25;3095836;28;20092;-76
2022/05/12 05:55:10;;;;;;;8.68;4.32;;;;;;;17.73;51.81;100241.69;3120885;28;20049;-73
2022/05/12 05:56:43;;;;;;;13.15;4.10;;;;;;;17.61;51.82;100213.56;3120281;28;20067;-78
2022/05/12 05:58:15;;;;;;;12.00;4.68;;;;;;;17.58;51.88;100190.91;3120272;28;20519;-78
2022/05/12 06:00:04;;;;;;;10.68;4.47;;;;;;;17.88;51.62;100227.50;3120570;28;20577;-80
2022/05/12 06:01:36;;;;;;;7.20;4.40;;;;;;;18.05;51.50;100243.97;3114602;28;20049;-68
2022/05/12 06:03:08;;;;;;;11.85;4.75;;;;;;;18.05;51.43;100230.78;3120242;28;20103;-74
2022/05/12 06:04:42;;;;;;;12.93;5.00;;;;;;;18.18;51.19;100242.97;3118943;28;20053;-71
2022/05/12 06:06:14;;;;;;;10.25;5.00;;;;;;;18.21;51.07;100236.66;3120043;28;20763;-74
2022/05/12 06:07:46;;;;;;;13.50;4.97;;;;;;;18.10;50.88;100207.56;3120256;28;20089;-73
2022/05/12 06:09:19;;;;;;;38.73;18.07;;;;;;;18.37;50.70;100229.38;3119693;28;20050;-68
2022/05/12 06:10:51;;;;;;;144.93;88.68;;;;;;;18.46;50.46;100233.16;3120402;28;20049;-70
2022/05/12 06:12:23;;;;;;;17.92;11.77;;;;;;;18.55;50.35;100231.66;3120600;28;20053;-71
2022/05/12 06:13:55;;;;;;;256.77;139.50;;;;;;;18.65;50.19;100237.94;3121073;28;20577;-72
2022/05/12 06:15:26;;;;;;;26.63;14.68;;;;;;;18.74;49.84;100239.94;3124142;28;20136;-70
2022/05/12 06:16:58;;;;;;;13.88;5.47;;;;;;;18.82;49.83;100237.59;3120673;28;20137;-68
2022/05/12 06:18:30;;;;;;;15.70;10.48;;;;;;;18.91;49.68;100237.88;3120375;28;20049;-67
2022/05/12 06:20:04;;;;;;;10.05;4.82;;;;;;;18.94;49.28;100224.47;3120687;28;20118;-67
2022/05/12 06:21:36;;;;;;;7.82;4.20;;;;;;;19.12;49.17;100235.47;3120643;28;20049;-64
2022/05/12 06:23:09;;;;;;;13.85;4.43;;;;;;;19.20;49.26;100235.75;3120527;28;20443;-65
2022/05/12 06:24:42;;;;;;;9.85;4.60;;;;;;;19.18;48.74;100221.81;3120457;28;20156;-64
2022/05/12 06:26:14;;;;;;;10.20;4.35;;;;;;;19.21;48.56;100205.75;3121372;28;20485;-66
2022/05/12 06:27:46;;;;;;;17.63;4.93;;;;;;;19.40;48.42;100227.16;3120321;28;20128;-64
2022/05/12 06:29:19;;;;;;;9.18;4.57;;;;;;;19.45;48.62;100225.00;3120507;28;20506;-64
2022/05/12 06:30:51;;;;;;;10.93;4.60;;;;;;;19.55;48.18;100233.94;3120625;28;20053;-66
2022/05/12 06:32:23;;;;;;;9.38;4.43;;;;;;;19.59;48.06;100241.63;3112634;28;20123;-69
2022/05/12 06:33:55;;;;;;;10.80;4.32;;;;;;;19.63;47.86;100233.34;3120415;28;20085;-66
2022/05/12 06:35:28;;;;;;;8.38;3.58;;;;;;;19.68;47.86;100236.53;3119602;28;20057;-66
2022/05/12 06:37:00;;;;;;;12.52;4.10;;;;;;;19.79;47.63;100241.00;3120332;28;20443;-67
2022/05/12 06:38:34;;;;;;;10.20;4.28;;;;;;;19.72;47.48;100218.63;3120233;28;20111;-67
2022/05/12 06:40:06;;;;;;;;;;;;;;;19.92;47.22;100240.88;3121037;28;20584;-67
2022/05/12 06:44:15;;;;;;;11.40;3.80;;;;;;;20.07;47.14;100247.63;3075949;28;20046;-67
2022/05/12 06:45:47;;;;;;;12.98;3.92;;;;;;;20.14;46.90;100243.56;3108794;28;20053;-65
2022/05/12 06:47:19;;;;;;;10.30;4.30;;;;;;;20.23;46.46;100240.19;3120431;28;20581;-66
2022/05/12 06:48:51;;;;;;;7.07;3.80;;;;;;;20.34;46.41;100233.19;3120384;28;20601;-66
2022/05/12 06:50:25;;;;;;;9.77;3.63;;;;;;;20.41;46.26;100223.84;3116133;28;20049;-67
2022/05/12 06:52:31;;;;;;;9.02;4.15;;;;;;;20.61;45.85;100233.66;3120281;28;20601;-67
2022/05/12 06:54:04;;;;;;;19.83;4.88;;;;;;;20.81;45.81;100234.72;3116049;28;20050;-67
2022/05/12 06:55:36;;;;;;;10.07;4.15;;;;;;;20.95;45.46;100230.97;3118941;28;20053;-67
2022/05/12 06:57:09;;;;;;;13.70;4.13;;;;;;;21.05;45.30;100229.22;3120293;28;20050;-67
2022/05/12 06:58:41;;;;;;;10.88;3.72;;;;;;;21.11;45.11;100227.88;3118776;28;20629;-66
2022/05/12 07:00:16;;;;;;;9.45;3.88;;;;;;;21.16;44.87;100224.88;3112620;28;20046;-67
2022/05/12 07:01:48;;;;;;;8.38;3.53;;;;;;;21.13;44.30;100221.50;3119089;28;20108;-67
2022/05/12 07:03:20;;;;;;;7.75;4.47;;;;;;;21.16;44.32;100222.22;3119266;28;20050;-67
2022/05/12 07:04:53;;;;;;;5.30;3.30;;;;;;;21.11;44.33;100225.22;3119729;28;20111;-67
2022/05/12 07:06:25;;;;;;;10.82;4.10;;;;;;;21.09;44.36;100220.06;3119044;28;20115;-67
2022/05/12 07:07:57;;;;;;;5.85;3.65;;;;;;;21.13;44.50;100224.13;3119134;28;20054;-67
2022/05/12 07:09:31;;;;;;;8.20;3.95;;;;;;;21.20;44.54;100223.63;3119317;28;20081;-68
2022/05/12 07:11:05;;;;;;;11.77;3.83;;;;;;;21.23;44.23;100221.56;3119119;28;20537;-68
2022/05/12 07:12:37;;;;;;;5.85;2.92;;;;;;;21.21;44.19;100202.34;3119327;28;20276;-68
2022/05/12 07:14:08;;;;;;;5.28;3.40;;;;;;;21.27;44.12;100195.69;3119145;28;20115;-69
2022/05/12 07:15:40;;;;;;;10.50;3.50;;;;;;;21.30;43.89;100195.44;3120826;28;20046;-65
2022/05/12 07:17:12;;;;;;;7.97;3.53;;;;;;;21.55;44.21;100210.94;3121408;28;20049;-65
2022/05/12 07:18:44;;;;;;;9.82;3.72;;;;;;;21.64;43.93;100205.84;3121207;28;20116;-65
2022/05/12 07:27:38;;;;;;;6.97;3.33;;;;;;;22.24;42.70;100218.34;3112223;28;20487;-65